createdAt,value
2023-03-13T00:01:24.090Z,39.40
2023-03-13T00:03:51.550Z,49.25
2023-03-13T00:06:19.031Z,39.08
2023-03-13T00:08:48.748Z,34.63
2023-03-13T00:11:22.754Z,44.75
2023-03-13T00:14:02.121Z,43.15
2023-03-13T00:16:33.458Z,48.45
2023-03-13T00:19:14.025Z,40.33
2023-03-13T00:21:51.046Z,38.90
2023-03-13T00:27:04.017Z,36.78
2023-03-13T00:29:32.706Z,36.28
2023-03-13T00:32:00.687Z,41.20
2023-03-13T00:34:28.620Z,38.53
2023-03-13T00:36:57.142Z,37.53
2023-03-13T00:39:24.477Z,39.13
2023-03-13T00:41:51.870Z,39.83
2023-03-13T00:44:21.398Z,38.80
2023-03-13T00:46:48.791Z,35.95
2023-03-13T00:49:16.165Z,42.45
2023-03-13T00:51:43.555Z,46.92
2023-03-13T00:54:10.997Z,46.67
2023-03-13T00:56:38.345Z,38.00
2023-03-13T00:59:05.884Z,35.90
2023-03-13T01:01:35.561Z,37.95
2023-03-13T01:04:05.656Z,31.73
2023-03-13T01:06:35.758Z,29.40
2023-03-13T01:09:05.720Z,24.42
2023-03-13T01:11:36.109Z,30.90
2023-03-13T01:14:06.202Z,29.90
2023-03-13T01:16:35.218Z,27.38
2023-03-13T01:19:05.722Z,28.13
2023-03-13T01:21:33.253Z,23.98
2023-03-13T01:24:00.676Z,34.65
2023-03-13T01:26:28.575Z,29.85
2023-03-13T01:28:56.225Z,22.98
2023-03-13T01:31:29.542Z,28.85
2023-03-13T01:33:59.400Z,26.25
2023-03-13T01:36:27.126Z,25.15
2023-03-13T01:38:56.780Z,22.13
2023-03-13T01:41:24.835Z,28.05
2023-03-13T01:43:53.015Z,24.48
2023-03-13T01:46:27.707Z,29.98
2023-03-13T01:49:08.723Z,27.63
2023-03-13T01:51:37.971Z,31.25
2023-03-13T01:54:09.581Z,32.47
2023-03-13T01:57:09.108Z,34.53
2023-03-13T01:59:42.500Z,34.35
2023-03-13T02:02:10.246Z,31.88
2023-03-13T02:04:41.975Z,32.90
2023-03-13T02:07:20.643Z,33.55
2023-03-13T02:09:53.205Z,31.60
2023-03-13T02:12:31.990Z,28.95
2023-03-13T02:15:00.890Z,27.27
2023-03-13T02:17:28.933Z,30.50
2023-03-13T02:19:56.466Z,29.08
2023-03-13T02:22:43.340Z,30.75
2023-03-13T02:25:25.816Z,24.92
2023-03-13T02:27:55.379Z,31.65
2023-03-13T02:30:23.296Z,23.50
2023-03-13T02:32:51.442Z,22.67
2023-03-13T02:35:21.527Z,22.10
2023-03-13T02:37:54.957Z,16.17
2023-03-13T02:40:31.392Z,18.40
2023-03-13T02:43:01.719Z,19.15
2023-03-13T02:45:29.172Z,16.52
2023-03-13T02:47:56.501Z,17.23
2023-03-13T02:50:24.454Z,15.38
2023-03-13T02:52:55.280Z,19.10
2023-03-13T02:55:31.486Z,19.38
2023-03-13T02:57:58.988Z,16.77
2023-03-13T03:00:27.445Z,17.48
2023-03-13T03:02:56.020Z,17.98
2023-03-13T03:05:23.841Z,17.13
2023-03-13T03:07:52.143Z,15.95
2023-03-13T03:10:23.403Z,19.23
2023-03-13T03:15:33.061Z,12.90
2023-03-13T03:18:00.358Z,17.38
2023-03-13T03:20:27.592Z,14.00
2023-03-13T03:22:54.878Z,15.65
2023-03-13T03:25:22.226Z,17.00
2023-03-13T03:27:50.131Z,12.27
2023-03-13T03:30:20.411Z,13.88
2023-03-13T03:32:47.824Z,14.50
2023-03-13T03:35:15.266Z,16.90
2023-03-13T03:37:42.532Z,13.20
2023-03-13T03:40:11.069Z,18.70
2023-03-13T03:42:38.464Z,15.15
2023-03-13T03:45:06.206Z,14.50
2023-03-13T03:47:33.846Z,14.80
2023-03-13T03:50:01.183Z,13.95
2023-03-13T03:52:28.485Z,16.35
2023-03-13T03:54:55.749Z,14.30
2023-03-13T03:57:23.623Z,16.15
2023-03-13T03:59:50.944Z,14.35
2023-03-13T04:02:18.397Z,18.83
2023-03-13T04:04:45.798Z,15.48
2023-03-13T04:07:13.118Z,15.88
2023-03-13T04:09:40.423Z,17.27
2023-03-13T04:12:08.229Z,16.65
2023-03-13T04:14:35.536Z,15.50
2023-03-13T04:17:02.851Z,13.35
2023-03-13T04:19:30.273Z,15.65
2023-03-13T04:21:59.097Z,12.52
2023-03-13T04:24:26.355Z,14.52
2023-03-13T04:26:53.873Z,15.23
2023-03-13T04:29:43.920Z,19.35
2023-03-13T04:32:13.025Z,12.55
2023-03-13T04:34:40.496Z,12.10
2023-03-13T04:37:07.831Z,13.55
2023-03-13T04:39:35.263Z,12.48
2023-03-13T04:42:02.633Z,13.30
2023-03-13T04:44:30.249Z,10.10
2023-03-13T04:46:58.060Z,12.00
2023-03-13T04:49:29.576Z,9.23
2023-03-13T04:52:06.993Z,16.80
2023-03-13T04:55:11.544Z,11.85
2023-03-13T04:57:48.344Z,10.20
2023-03-13T05:00:19.786Z,16.33
2023-03-13T05:02:54.403Z,11.73
2023-03-13T05:05:23.246Z,13.82
2023-03-13T05:16:44.865Z,15.48
2023-03-13T05:19:22.337Z,14.15
2023-03-13T05:21:54.386Z,13.77
2023-03-13T05:24:35.408Z,10.75
2023-03-13T05:27:25.205Z,9.73
2023-03-13T05:30:13.520Z,14.80
2023-03-13T05:32:53.500Z,11.45
2023-03-13T05:35:36.402Z,14.40
2023-03-13T05:40:36.159Z,16.73
2023-03-13T05:43:03.564Z,13.07
2023-03-13T05:45:31.298Z,17.52
2023-03-13T05:48:01.743Z,13.55
2023-03-13T05:50:29.025Z,12.07
2023-03-13T05:52:56.326Z,12.77
2023-03-13T05:55:23.620Z,9.65
2023-03-13T05:57:51.009Z,15.32
2023-03-13T06:00:19.225Z,12.57
2023-03-13T06:02:46.554Z,11.20
2023-03-13T06:05:13.890Z,11.57
2023-03-13T06:07:41.277Z,13.57
2023-03-13T06:10:11.166Z,9.65
2023-03-13T06:12:39.225Z,12.43
2023-03-13T06:15:09.534Z,11.07
2023-03-13T06:17:40.274Z,11.70
2023-03-13T06:20:09.654Z,13.70
2023-03-13T06:22:38.579Z,17.38
2023-03-13T06:25:10.035Z,11.15
2023-03-13T06:27:53.394Z,18.85
2023-03-13T06:30:22.308Z,13.45
2023-03-13T06:32:53.291Z,14.57
2023-03-13T06:35:21.381Z,17.95
2023-03-13T06:37:49.881Z,14.23
2023-03-13T06:40:21.209Z,14.80
2023-03-13T06:42:54.860Z,12.65
2023-03-13T06:45:22.281Z,13.52
2023-03-13T06:47:52.467Z,16.50
2023-03-13T06:50:20.150Z,17.23
2023-03-13T06:52:50.485Z,17.13
2023-03-13T06:55:18.522Z,15.45
2023-03-13T06:57:50.153Z,11.68
2023-03-13T07:00:20.046Z,17.88
2023-03-13T07:02:48.989Z,17.55
2023-03-13T07:05:22.918Z,16.20
2023-03-13T07:07:54.265Z,14.90
2023-03-13T07:10:30.168Z,16.38
2023-03-13T07:13:00.208Z,19.83
2023-03-13T07:15:30.480Z,13.32
2023-03-13T07:18:00.949Z,20.08
2023-03-13T07:20:33.077Z,15.82
2023-03-13T07:23:00.811Z,11.55
2023-03-13T07:25:30.726Z,19.38
2023-03-13T07:28:01.404Z,12.55
2023-03-13T07:30:29.898Z,15.80
2023-03-13T07:32:59.008Z,16.25
2023-03-13T07:35:42.664Z,15.77
2023-03-13T07:38:14.765Z,20.15
2023-03-13T07:41:00.188Z,18.50
2023-03-13T07:43:29.459Z,14.50
2023-03-13T07:46:10.569Z,19.05
2023-03-13T07:48:40.141Z,15.57
2023-03-13T07:51:10.942Z,12.73
2023-03-13T07:53:55.531Z,18.17
2023-03-13T07:56:23.981Z,16.38
2023-03-13T07:58:54.151Z,16.40
2023-03-13T08:01:26.082Z,14.50
2023-03-13T08:03:56.003Z,20.13
2023-03-13T08:06:34.240Z,16.45
2023-03-13T08:09:01.962Z,16.60
2023-03-13T08:11:29.716Z,15.70
2023-03-13T08:13:59.895Z,12.98
2023-03-13T08:16:34.989Z,13.82
2023-03-13T08:19:06.287Z,13.73
2023-03-13T08:21:36.049Z,16.05
2023-03-13T08:24:09.076Z,10.70
2023-03-13T08:26:44.017Z,12.85
2023-03-13T08:29:31.581Z,13.10
2023-03-13T08:31:59.123Z,13.98
2023-03-13T08:34:26.555Z,15.60
2023-03-13T08:36:58.180Z,10.07
2023-03-13T08:39:25.473Z,12.20
2023-03-13T08:41:53.184Z,17.50
2023-03-13T08:44:21.010Z,14.32
2023-03-13T08:46:52.438Z,10.10
2023-03-13T08:49:19.909Z,13.35
2023-03-13T08:51:51.418Z,7.60
2023-03-13T08:54:19.126Z,8.93
2023-03-13T08:56:52.692Z,10.05
2023-03-13T08:59:20.172Z,12.30
2023-03-13T09:01:54.933Z,10.20
2023-03-13T09:04:25.385Z,15.57
2023-03-13T09:06:55.684Z,11.45
2023-03-13T09:09:26.132Z,9.07
2023-03-13T09:11:56.107Z,8.88
2023-03-13T09:14:23.955Z,8.57
2023-03-13T09:16:54.017Z,8.35
2023-03-13T09:19:28.140Z,9.27
2023-03-13T09:22:01.267Z,8.98
2023-03-13T09:27:30.155Z,7.53
2023-03-13T09:30:03.357Z,7.50
2023-03-13T09:32:33.806Z,6.97
2023-03-13T09:35:32.507Z,10.57
2023-03-13T09:38:02.033Z,8.70
2023-03-13T09:40:29.493Z,6.35
2023-03-13T09:43:00.291Z,7.97
2023-03-13T09:45:42.136Z,6.47
2023-03-13T09:48:35.906Z,3.97
2023-03-13T09:51:23.922Z,11.27
2023-03-13T09:54:06.272Z,7.28
2023-03-13T09:57:13.827Z,8.73
2023-03-13T09:59:43.673Z,5.25
2023-03-13T10:02:35.381Z,11.30
2023-03-13T10:05:21.797Z,6.93
2023-03-13T10:07:49.612Z,4.97
2023-03-13T10:10:19.496Z,6.68
2023-03-13T10:12:49.340Z,6.90
2023-03-13T10:15:37.751Z,5.95
2023-03-13T10:18:18.550Z,6.45
2023-03-13T10:20:51.599Z,7.50
2023-03-13T10:23:49.484Z,10.00
2023-03-13T10:26:29.193Z,7.05
2023-03-13T10:28:57.835Z,6.53
2023-03-13T10:31:33.193Z,8.27
2023-03-13T10:34:10.854Z,6.05
2023-03-13T10:36:46.528Z,10.55
2023-03-13T10:39:22.711Z,7.85
2023-03-13T10:41:51.656Z,9.32
2023-03-13T10:44:23.956Z,11.13
2023-03-13T10:46:52.015Z,10.25
2023-03-13T10:49:24.446Z,6.22
2023-03-13T10:51:54.565Z,8.18
2023-03-13T10:54:25.630Z,9.60
2023-03-13T10:57:07.658Z,9.40
2023-03-13T10:59:42.945Z,8.63
2023-03-13T11:02:21.659Z,9.23
2023-03-13T11:04:54.080Z,7.40
2023-03-13T11:07:32.618Z,10.02
2023-03-13T11:10:14.361Z,8.93
2023-03-13T11:12:46.872Z,6.82
2023-03-13T11:15:17.338Z,4.80
2023-03-13T11:17:48.921Z,5.63
2023-03-13T11:20:22.243Z,4.85
2023-03-13T11:22:53.973Z,10.15
2023-03-13T11:25:26.223Z,9.20
2023-03-13T11:28:20.780Z,7.20
2023-03-13T11:31:03.137Z,6.00
2023-03-13T11:33:58.869Z,8.27
2023-03-13T11:36:35.107Z,7.22
2023-03-13T11:39:08.236Z,7.00
2023-03-13T11:42:30.714Z,8.07
2023-03-13T11:45:16.534Z,6.85
2023-03-13T11:48:04.926Z,14.95
2023-03-13T11:50:55.512Z,12.73
2023-03-13T11:53:44.999Z,23.70
2023-03-13T11:56:16.425Z,13.27
2023-03-13T11:58:54.409Z,8.98
2023-03-13T12:01:25.023Z,11.75
2023-03-13T12:04:06.385Z,19.05
2023-03-13T12:06:36.555Z,12.95
2023-03-13T12:09:28.346Z,11.93
2023-03-13T12:12:33.329Z,15.30
2023-03-13T12:15:06.642Z,14.70
2023-03-13T12:17:40.594Z,15.05
2023-03-13T12:20:26.548Z,16.55
2023-03-13T12:23:32.820Z,14.15
2023-03-13T12:26:21.038Z,11.25
2023-03-13T12:28:53.040Z,13.77
2023-03-13T12:31:34.314Z,15.88
2023-03-13T12:34:14.669Z,17.63
2023-03-13T12:37:07.480Z,14.45
2023-03-13T12:39:58.290Z,10.43
2023-03-13T12:43:16.381Z,10.65
2023-03-13T12:45:58.686Z,14.48
2023-03-13T12:48:51.061Z,13.75
2023-03-13T12:51:34.853Z,16.20
2023-03-13T12:54:29.375Z,13.77
2023-03-13T12:57:13.009Z,15.50
2023-03-13T12:59:49.081Z,17.30
2023-03-13T13:02:29.325Z,18.27
2023-03-13T13:04:58.064Z,18.90
2023-03-13T13:07:29.186Z,19.85
2023-03-13T13:10:20.991Z,22.95
2023-03-13T13:13:15.255Z,20.95
2023-03-13T13:15:49.892Z,19.58
2023-03-13T13:18:29.112Z,20.48
2023-03-13T13:21:05.849Z,17.02
2023-03-13T13:23:42.640Z,26.38
2023-03-13T13:26:38.249Z,22.65
2023-03-13T13:29:18.351Z,25.50
2023-03-13T13:31:51.312Z,20.52
2023-03-13T13:34:31.362Z,19.95
2023-03-13T13:37:25.996Z,21.05
2023-03-13T13:39:55.813Z,22.40
2023-03-13T13:42:32.381Z,21.52
2023-03-13T13:45:22.794Z,23.40
2023-03-13T13:47:50.712Z,26.30
2023-03-13T13:50:26.111Z,22.10
2023-03-13T13:52:53.902Z,17.98
2023-03-13T13:55:31.754Z,20.65
2023-03-13T13:58:09.837Z,20.63
2023-03-13T14:00:46.915Z,28.23
2023-03-13T14:03:19.101Z,25.77
2023-03-13T14:05:49.274Z,21.13
2023-03-13T14:08:34.180Z,26.33
2023-03-13T14:11:27.602Z,22.92
2023-03-13T14:14:17.760Z,27.20
2023-03-13T14:16:47.127Z,23.05
2023-03-13T14:19:31.200Z,18.50
2023-03-13T14:22:04.296Z,21.23
2023-03-13T14:24:31.865Z,25.15
2023-03-13T14:26:59.332Z,23.02
2023-03-13T14:29:26.954Z,23.65
2023-03-13T14:31:57.873Z,19.88
2023-03-13T14:34:26.040Z,23.42
2023-03-13T14:37:07.399Z,22.50
2023-03-13T14:39:45.048Z,25.15
2023-03-13T14:42:13.111Z,26.80
2023-03-13T14:44:43.886Z,18.92
2023-03-13T14:47:24.622Z,21.75
2023-03-13T14:49:58.881Z,18.67
2023-03-13T14:52:28.381Z,20.60
2023-03-13T14:54:58.617Z,23.20
2023-03-13T14:57:27.521Z,23.67
2023-03-13T14:59:56.198Z,22.48
2023-03-13T15:02:32.314Z,22.27
2023-03-13T15:05:06.473Z,19.55
2023-03-13T15:07:37.971Z,22.73
2023-03-13T15:10:31.572Z,27.92
2023-03-13T15:12:59.162Z,23.75
2023-03-13T15:15:26.735Z,20.17
2023-03-13T15:17:54.063Z,18.48
2023-03-13T15:20:23.239Z,24.02
2023-03-13T15:22:50.540Z,24.65
2023-03-13T15:25:23.140Z,25.48
2023-03-13T15:27:53.813Z,21.45
2023-03-13T15:30:25.754Z,25.75
2023-03-13T15:32:53.312Z,21.40
2023-03-13T15:35:28.731Z,26.30
2023-03-13T15:37:57.462Z,20.70
2023-03-13T15:40:25.398Z,21.83
2023-03-13T15:42:53.767Z,31.73
2023-03-13T15:45:21.415Z,26.65
2023-03-13T15:47:49.027Z,22.73
2023-03-13T15:50:20.642Z,29.13
2023-03-13T15:52:48.065Z,28.55
2023-03-13T15:55:15.833Z,27.67
2023-03-13T15:57:47.044Z,28.10
2023-03-13T16:00:24.454Z,23.92
2023-03-13T16:02:51.847Z,28.45
2023-03-13T16:05:21.676Z,26.95
2023-03-13T16:07:51.584Z,26.77
2023-03-13T16:10:31.375Z,27.10
2023-03-13T16:12:58.820Z,29.50
2023-03-13T16:15:26.162Z,20.73
2023-03-13T16:17:53.497Z,31.45
2023-03-13T16:20:23.729Z,26.23
2023-03-13T16:22:53.453Z,26.30
2023-03-13T16:25:21.605Z,26.58
2023-03-13T16:27:49.153Z,36.85
2023-03-13T16:30:34.985Z,31.23
2023-03-13T16:33:02.408Z,30.38
2023-03-13T16:35:30.231Z,33.90
2023-03-13T16:37:58.238Z,38.05
2023-03-13T16:40:33.565Z,35.67
2023-03-13T16:43:01.118Z,38.65
2023-03-13T16:45:28.631Z,32.35
2023-03-13T16:47:55.986Z,32.42
2023-03-13T16:50:33.388Z,30.50
2023-03-13T16:53:00.849Z,30.40
2023-03-13T16:55:31.019Z,36.25
2023-03-13T16:57:59.361Z,30.63
2023-03-13T17:00:29.545Z,46.78
2023-03-13T17:02:58.255Z,42.53
2023-03-13T17:05:26.277Z,41.92
2023-03-13T17:07:54.327Z,27.25
2023-03-13T17:10:22.919Z,39.55
2023-03-13T17:12:50.949Z,33.58
2023-03-13T17:15:19.983Z,34.00
2023-03-13T17:17:51.697Z,36.63
2023-03-13T17:20:37.390Z,37.43
2023-03-13T17:23:04.834Z,42.90
2023-03-13T17:25:33.224Z,39.08
2023-03-13T17:28:00.708Z,37.80
2023-03-13T17:30:30.391Z,38.92
2023-03-13T17:33:01.159Z,38.08
2023-03-13T17:35:28.609Z,41.33
2023-03-13T17:37:57.547Z,42.20
2023-03-13T17:40:27.573Z,41.83
2023-03-13T17:42:57.049Z,37.15
2023-03-13T17:45:25.219Z,45.10
2023-03-13T17:47:54.361Z,41.50
2023-03-13T17:50:27.538Z,37.35
2023-03-13T17:52:55.365Z,47.40
2023-03-13T17:55:30.262Z,44.05
2023-03-13T17:57:57.627Z,47.60
2023-03-13T18:00:32.235Z,41.60
2023-03-13T18:03:02.436Z,38.95
2023-03-13T18:05:35.429Z,54.60
2023-03-13T18:08:02.833Z,43.75
2023-03-13T18:10:31.152Z,37.63
2023-03-13T18:12:58.649Z,44.65
2023-03-13T18:15:26.868Z,43.92
2023-03-13T18:17:57.156Z,40.45
2023-03-13T18:20:27.290Z,42.17
2023-03-13T18:22:59.606Z,42.08
2023-03-13T18:25:28.207Z,44.03
2023-03-13T18:27:55.656Z,37.50
2023-03-13T18:30:24.748Z,44.40
2023-03-13T18:32:52.325Z,34.58
2023-03-13T18:35:21.684Z,40.67
2023-03-13T18:37:49.469Z,39.22
2023-03-13T18:40:24.573Z,44.45
2023-03-13T18:42:52.149Z,37.83
2023-03-13T18:45:22.114Z,37.10
2023-03-13T18:47:49.443Z,39.50
2023-03-13T18:50:26.501Z,45.58
2023-03-13T18:52:58.531Z,37.20
2023-03-13T18:55:28.238Z,40.72
2023-03-13T18:57:56.276Z,43.95
2023-03-13T19:00:26.893Z,35.22
2023-03-13T19:02:54.363Z,39.97
2023-03-13T19:05:22.016Z,42.53
2023-03-13T19:07:49.392Z,33.88
2023-03-13T19:10:28.350Z,33.22
2023-03-13T19:12:56.634Z,34.10
2023-03-13T19:15:26.230Z,32.42
2023-03-13T19:17:55.190Z,26.67
2023-03-13T19:20:23.525Z,31.10
2023-03-13T19:22:51.021Z,34.47
2023-03-13T19:25:18.596Z,33.85
2023-03-13T19:27:46.788Z,35.10
2023-03-13T19:30:24.599Z,38.78
2023-03-13T19:32:52.240Z,33.55
2023-03-13T19:35:21.772Z,33.35
2023-03-13T19:37:49.523Z,41.20
2023-03-13T19:40:26.068Z,37.47
2023-03-13T19:42:53.378Z,31.55
2023-03-13T19:45:22.050Z,31.05
2023-03-13T19:47:49.848Z,32.75
2023-03-13T19:50:20.214Z,36.92
2023-03-13T19:52:47.884Z,31.85
2023-03-13T19:55:15.355Z,32.03
2023-03-13T19:57:42.819Z,29.85
2023-03-13T20:00:24.481Z,35.03
2023-03-13T20:02:54.799Z,34.47
2023-03-13T20:05:22.660Z,34.63
2023-03-13T20:07:50.105Z,24.65
2023-03-13T20:10:17.500Z,31.58
2023-03-13T20:12:44.846Z,32.20
2023-03-13T20:15:12.454Z,28.00
2023-03-13T20:17:39.869Z,32.28
2023-03-13T20:20:08.530Z,33.83
2023-03-13T20:22:36.204Z,31.02
2023-03-13T20:25:06.017Z,35.10
2023-03-13T20:27:33.407Z,32.40
2023-03-13T20:30:01.494Z,33.28
2023-03-13T20:32:31.891Z,33.40
2023-03-13T20:34:59.314Z,40.55
2023-03-13T20:37:30.854Z,36.05
2023-03-13T20:39:58.990Z,32.27
2023-03-13T20:42:26.281Z,38.20
2023-03-13T20:44:55.397Z,37.17
2023-03-13T20:47:22.734Z,33.30
2023-03-13T20:49:50.358Z,31.17
2023-03-13T20:52:17.906Z,37.40
2023-03-13T20:54:45.292Z,35.35
2023-03-13T20:57:12.641Z,32.88
2023-03-13T20:59:47.332Z,31.80
2023-03-13T21:02:14.863Z,39.53
2023-03-13T21:04:42.350Z,28.15
2023-03-13T21:07:11.797Z,35.00
2023-03-13T21:09:39.163Z,30.52
2023-03-13T21:12:08.782Z,34.28
2023-03-13T21:14:37.237Z,34.47
2023-03-13T21:17:05.109Z,28.77
2023-03-13T21:19:34.119Z,34.83
2023-03-13T21:22:01.492Z,31.08
2023-03-13T21:24:31.999Z,32.80
2023-03-13T21:26:59.911Z,34.53
2023-03-13T21:29:27.560Z,30.88
2023-03-13T21:31:54.859Z,34.35
2023-03-13T21:34:22.217Z,27.08
2023-03-13T21:36:52.394Z,32.50
2023-03-13T21:39:19.952Z,33.85
2023-03-13T21:41:47.375Z,40.90
2023-03-13T21:44:19.623Z,36.63
2023-03-13T21:46:48.745Z,33.17
2023-03-13T21:49:16.143Z,27.38
2023-03-13T21:51:43.520Z,36.50
2023-03-13T21:54:10.804Z,38.60
2023-03-13T21:56:41.152Z,29.55
2023-03-13T21:59:08.723Z,32.75
2023-03-13T22:01:36.025Z,33.92
2023-03-13T22:04:03.333Z,26.67
2023-03-13T22:06:30.708Z,35.40
2023-03-13T22:08:58.010Z,31.80
2023-03-13T22:11:25.355Z,32.22
2023-03-13T22:13:54.873Z,32.10
2023-03-13T22:16:25.277Z,37.63
2023-03-13T22:18:52.767Z,35.15
2023-03-13T22:21:20.578Z,32.67
2023-03-13T22:23:47.895Z,36.00
2023-03-13T22:26:15.520Z,27.65
2023-03-13T22:28:42.933Z,28.75
2023-03-13T22:31:11.307Z,32.75
2023-03-13T22:33:38.635Z,36.38
2023-03-13T22:36:06.735Z,37.60
2023-03-13T22:38:38.856Z,38.17
2023-03-13T22:41:08.958Z,33.35
2023-03-13T22:43:36.499Z,24.42
2023-03-13T22:46:10.411Z,26.38
2023-03-13T22:48:37.991Z,29.73
2023-03-13T22:51:08.807Z,36.47
2023-03-13T22:53:38.075Z,33.67
2023-03-13T22:56:05.946Z,35.67
2023-03-13T22:58:34.373Z,30.95
2023-03-13T23:01:12.672Z,33.65
2023-03-13T23:03:40.280Z,34.30
2023-03-13T23:06:21.174Z,37.05
2023-03-13T23:08:49.032Z,26.65
2023-03-13T23:11:16.474Z,31.83
2023-03-13T23:13:44.021Z,32.47
2023-03-13T23:16:12.752Z,37.75
2023-03-13T23:18:40.628Z,31.20
2023-03-13T23:21:10.756Z,29.10
2023-03-13T23:23:38.478Z,31.15
2023-03-13T23:26:08.755Z,28.80
2023-03-13T23:28:37.082Z,26.08
2023-03-13T23:31:35.075Z,31.70
2023-03-13T23:34:02.500Z,29.88
2023-03-13T23:36:30.010Z,27.75
2023-03-13T23:38:58.392Z,27.73
2023-03-13T23:41:26.003Z,29.58
2023-03-13T23:43:53.377Z,21.85
2023-03-13T23:46:23.519Z,20.38
2023-03-13T23:48:54.768Z,22.95
2023-03-13T23:51:22.658Z,21.48
2023-03-13T23:53:50.082Z,17.55
2023-03-13T23:56:18.029Z,26.40
2023-03-13T23:58:45.370Z,21.17
